Time;durP1;ratioP1;P1;durP2;ratioP2;P2;SDS_P1;SDS_P2;PMS_P1;PMS_P2;Temp;Humidity;BMP_temperature;BMP_pressure;BME280_temperature;BME280_humidity;BME280_pressure;Samples;Min_cycle;Max_cycle;Signal;HPM_P1;HPM_P2
2023/08/02 00:00:58;;;;;;;;;;;;;;;23.59;50.93;99476.08;2300583;77;50289;-77
2023/08/02 00:03:59;;;;;;;;;;;;;;;23.60;50.91;99477.17;2300404;76;50334;-77
2023/08/02 00:07:01;;;;;;;;;;;;;;;23.58;50.90;99479.31;2278718;77;51194;-76
2023/08/02 00:10:03;;;;;;;;;;;;;;;23.59;50.90;99480.94;2278980;77;51544;-77
2023/08/02 00:13:05;;;;;;;;;;;;;;;23.58;50.87;99475.27;2279334;77;51545;-78
2023/08/02 00:16:07;;;;;;;;;;;;;;;23.57;50.89;99468.21;2300382;77;50254;-77
2023/08/02 00:19:08;;;;;;;;;;;;;;;23.58;50.86;99475.27;2279166;77;50079;-76
2023/08/02 00:22:10;;;;;;;;;;;;;;;23.59;50.85;99477.43;2300506;76;49913;-76
2023/08/02 00:25:11;;;;;;;;;;;;;;;23.57;50.87;99477.66;2294733;76;50611;-78
2023/08/02 00:28:13;;;;;;;;;;;;;;;23.59;50.84;99477.43;2332948;75;50652;-76
2023/08/02 00:31:14;;;;;;;;;;;;;;;23.57;50.84;99474.96;2298993;76;52524;-77
2023/08/02 00:34:16;;;;;;;;;;;;;;;23.58;50.80;99477.97;2299024;76;51570;-76
2023/08/02 00:37:18;;;;;;;;;;;;;;;23.58;50.79;99487.42;2298878;76;51469;-77
2023/08/02 00:40:21;;;;;;;;;;;;;;;23.58;50.80;99484.72;2333187;76;51451;-77
2023/08/02 00:43:22;;;;;;;;;;;;;;;23.58;50.77;99479.31;2332666;75;51630;-77
2023/08/02 00:46:24;;;;;;;;;;;;;;;23.58;50.75;99483.88;2296601;75;51506;-78
2023/08/02 00:49:25;;;;;;;;;;;;;;;23.57;50.79;99489.81;2321443;76;50249;-77
2023/08/02 00:52:27;;;;;;;;;;;;;;;23.56;50.77;99493.59;2321576;76;50348;-77
2023/08/02 00:55:29;;;;;;;;;;;;;;;23.57;50.76;99497.10;2300978;75;51128;-76
2023/08/02 00:58:30;;;;;;;;;;;;;;;23.55;50.77;99493.82;2322417;76;50644;-76
2023/08/02 01:01:32;;;;;;;;;;;;;;;23.56;50.75;99492.23;2300511;76;50795;-76
2023/08/02 01:04:34;;;;;;;;;;;;;;;23.56;50.73;99484.67;2300388;76;51459;-77
2023/08/02 01:07:46;;;;;;;;;;;;;;;23.55;50.73;99481.13;2299870;76;51243;-77
2023/08/02 01:10:52;;;;;;;;;;;;;;;23.52;50.73;99491.08;2322146;75;51509;-77
2023/08/02 01:13:54;;;;;;;;;;;;;;;23.55;50.70;99487.06;2321822;76;51633;-77
2023/08/02 01:16:56;;;;;;;;;;;;;;;23.54;50.72;99483.55;2322103;75;50380;-76
2023/08/02 01:20:03;;;;;;;;;;;;;;;23.54;50.71;99489.50;2300166;76;51530;-76
2023/08/02 01:23:05;;;;;;;;;;;;;;;23.54;50.71;99489.50;2322218;76;50737;-76
2023/08/02 01:26:07;;;;;;;;;;;;;;;23.53;50.69;99487.84;2297521;75;50387;-77
2023/08/02 01:29:08;;;;;;;;;;;;;;;23.54;50.67;99485.44;2309442;76;49648;-76
2023/08/02 01:32:10;;;;;;;;;;;;;;;23.54;50.64;99487.61;2321559;76;51621;-77
2023/08/02 01:35:12;;;;;;;;;;;;;;;23.54;50.65;99491.66;2321477;76;51559;-76
2023/08/02 01:38:13;;;;;;;;;;;;;;;23.52;50.63;99488.38;2309017;76;51494;-76
2023/08/02 01:41:15;;;;;;;;;;;;;;;23.54;50.62;99494.36;2321458;76;51436;-76
2023/08/02 01:44:16;;;;;;;;;;;;;;;23.54;50.63;99489.50;2321464;76;51532;-77
2023/08/02 01:47:18;;;;;;;;;;;;;;;23.53;50.62;99484.63;2309165;76;49920;-77
2023/08/02 01:50:20;;;;;;;;;;;;;;;23.53;50.61;99481.93;2309343;76;50304;-77
2023/08/02 01:53:21;;;;;;;;;;;;;;;23.52;50.64;99491.61;2309457;76;51559;-77
2023/08/02 01:56:23;;;;;;;;;;;;;;;23.52;50.60;99496.48;2302344;75;51139;-77
2023/08/02 01:59:24;;;;;;;;;;;;;;;23.52;50.59;99492.42;2322381;76;50654;-77
2023/08/02 02:02:26;;;;;;;;;;;;;;;23.52;50.60;99492.96;2322407;76;50267;-77
2023/08/02 02:05:27;;;;;;;;;;;;;;;23.52;50.60;99489.72;2300339;75;50639;-77
2023/08/02 02:08:29;;;;;;;;;;;;;;;23.53;50.59;99489.19;2300281;76;50704;-77
2023/08/02 02:11:31;;;;;;;;;;;;;;;23.52;50.55;99488.38;2322373;76;50203;-77
2023/08/02 02:14:32;;;;;;;;;;;;;;;23.52;50.57;99495.12;2300711;76;50745;-77
2023/08/02 02:17:34;;;;;;;;;;;;;;;23.52;50.54;99492.96;2322358;75;50613;-76
2023/08/02 02:20:35;;;;;;;;;;;;;;;23.51;50.55;99490.80;2322575;76;51503;-77
2023/08/02 02:23:37;;;;;;;;;;;;;;;23.52;50.55;99491.61;2300877;76;51596;-77
2023/08/02 02:26:38;;;;;;;;;;;;;;;23.51;50.54;99496.20;2288017;76;51675;-77
2023/08/02 02:29:40;;;;;;;;;;;;;;;23.51;50.53;99489.45;2283353;78;50810;-77
2023/08/02 02:32:42;;;;;;;;;;;;;;;23.51;50.55;99489.98;2244826;78;51241;-77
2023/08/02 02:35:43;;;;;;;;;;;;;;;23.52;50.49;99490.27;2269848;76;50689;-76
2023/08/02 02:38:45;;;;;;;;;;;;;;;23.51;50.52;99488.10;2281621;78;50671;-77
2023/08/02 02:41:46;;;;;;;;;;;;;;;23.51;50.51;99490.80;2282563;78;51540;-77
2023/08/02 02:44:48;;;;;;;;;;;;;;;23.51;50.50;99482.70;2282372;78;50704;-77
2023/08/02 02:47:50;;;;;;;;;;;;;;;23.51;50.51;99484.05;2281097;76;50651;-76
2023/08/02 02:50:51;;;;;;;;;;;;;;;23.50;50.51;99490.50;2281402;78;50299;-76
2023/08/02 02:53:53;;;;;;;;;;;;;;;23.50;50.51;99481.58;2280035;75;50624;-76
2023/08/02 02:56:54;;;;;;;;;;;;;;;23.51;50.49;99477.84;2305304;76;50684;-77
2023/08/02 02:59:56;;;;;;;;;;;;;;;23.50;50.48;99474.30;2312176;76;51507;-77
2023/08/02 03:02:57;;;;;;;;;;;;;;;23.50;50.50;99474.30;2309664;76;51557;-76
2023/08/02 03:05:59;;;;;;;;;;;;;;;23.49;50.50;99476.72;2309330;75;51326;-76
2023/08/02 03:09:01;;;;;;;;;;;;;;;23.48;50.50;99478.61;2283373;76;52413;-77
2023/08/02 03:12:02;;;;;;;;;;;;;;;23.49;50.46;99475.37;2321436;76;50419;-77
2023/08/02 03:15:06;;;;;;;;;;;;;;;23.50;50.49;99482.93;2309303;76;50230;-78
2023/08/02 03:18:07;;;;;;;;;;;;;;;23.48;50.47;99478.61;2321261;75;51208;-77
2023/08/02 03:21:09;;;;;;;;;;;;;;;23.48;50.49;99477.26;2309347;76;51158;-76
2023/08/02 03:24:11;;;;;;;;;;;;;;;23.49;50.45;99482.13;2317973;76;50453;-77
2023/08/02 03:27:12;;;;;;;;;;;;;;;23.47;50.44;99481.53;2320426;75;51586;-76
2023/08/02 03:30:14;;;;;;;;;;;;;;;23.47;50.46;99482.89;2319529;76;50433;-76
2023/08/02 03:33:15;;;;;;;;;;;;;;;23.47;50.45;99489.64;2270020;76;51063;-76
2023/08/02 03:36:17;;;;;;;;;;;;;;;23.49;50.43;99495.62;2319327;75;50403;-76
2023/08/02 03:39:18;;;;;;;;;;;;;;;23.47;50.44;99497.20;2319492;76;50639;-76
2023/08/02 03:42:20;;;;;;;;;;;;;;;23.46;50.43;99493.41;2319460;76;50668;-76
2023/08/02 03:45:22;;;;;;;;;;;;;;;23.48;50.43;99495.34;2308029;76;52398;-76
2023/08/02 03:48:25;;;;;;;;;;;;;;;23.46;50.44;99493.41;2319316;75;50378;-76
2023/08/02 03:51:27;;;;;;;;;;;;;;;23.46;50.47;99495.58;2295503;76;51582;-77
2023/08/02 03:54:29;;;;;;;;;;;;;;;23.47;50.43;99496.39;2319627;76;50493;-76
2023/08/02 03:57:30;;;;;;;;;;;;;;;23.46;50.38;99486.66;2309908;76;53101;-77
2023/08/02 04:00:32;;;;;;;;;;;;;;;23.46;50.41;99498.81;2321489;76;51517;-76
2023/08/02 04:03:33;;;;;;;;;;;;;;;23.46;50.38;99492.06;2321424;76;50915;-77
2023/08/02 04:06:35;;;;;;;;;;;;;;;23.46;50.38;99490.17;2308957;76;54164;-77
2023/08/02 04:09:37;;;;;;;;;;;;;;;23.46;50.36;99490.71;2309104;76;51734;-77
2023/08/02 04:12:38;;;;;;;;;;;;;;;23.45;50.38;99494.45;2309165;76;51446;-77
2023/08/02 04:15:40;;;;;;;;;;;;;;;23.46;50.38;99496.11;2321287;76;51512;-77
2023/08/02 04:18:42;;;;;;;;;;;;;;;23.45;50.36;99497.16;2308996;76;51513;-77
2023/08/02 04:21:44;;;;;;;;;;;;;;;23.45;50.41;99499.86;2309088;76;51713;-77
2023/08/02 04:24:45;;;;;;;;;;;;;;;23.46;50.33;99496.92;2312056;76;53461;-77
2023/08/02 04:27:47;;;;;;;;;;;;;;;23.46;50.35;99497.46;2323318;75;51726;-78
2023/08/02 04:30:52;;;;;;;;;;;;;;;23.44;50.37;99502.28;2295369;76;51471;-77
2023/08/02 04:33:54;;;;;;;;;;;;;;;23.45;50.35;99501.20;2295167;76;52445;-77
2023/08/02 04:36:56;;;;;;;;;;;;;;;23.44;50.35;99501.74;2295049;76;50602;-77
2023/08/02 04:39:57;;;;;;;;;;;;;;;23.44;50.35;99499.05;2319438;76;51569;-77
2023/08/02 04:42:59;;;;;;;;;;;;;;;23.44;50.36;99504.44;2319493;76;51507;-76
2023/08/02 04:46:00;;;;;;;;;;;;;;;23.45;50.33;99495.80;2295192;75;51497;-77
2023/08/02 04:49:02;;;;;;;;;;;;;;;23.46;50.31;99499.63;2319191;76;51554;-77
2023/08/02 04:52:04;;;;;;;;;;;;;;;23.45;50.32;99495.80;2319467;76;50379;-76
2023/08/02 04:55:06;;;;;;;;;;;;;;;23.45;50.33;99497.16;2320498;76;50188;-77
2023/08/02 04:58:08;;;;;;;;;;;;;;;23.44;50.33;99493.64;2283169;76;51067;-77
2023/08/02 05:01:09;;;;;;;;;;;;;;;23.44;50.32;99494.18;2309212;76;51684;-77
2023/08/02 05:04:11;;;;;;;;;;;;;;;23.44;50.33;99491.48;2321286;76;50378;-77
2023/08/02 05:07:13;;;;;;;;;;;;;;;23.44;50.32;99486.08;2321096;75;50402;-77
2023/08/02 05:10:14;;;;;;;;;;;;;;;23.44;50.30;99494.18;2309071;76;50021;-76
2023/08/02 05:13:16;;;;;;;;;;;;;;;23.45;50.30;99485.01;2283421;76;51016;-77
2023/08/02 05:16:17;;;;;;;;;;;;;;;23.44;50.32;99480.68;2321124;75;50264;-77
2023/08/02 05:19:19;;;;;;;;;;;;;;;23.43;50.32;99473.66;2321228;76;50260;-77
2023/08/02 05:22:21;;;;;;;;;;;;;;;23.43;50.31;99477.17;2321269;76;50620;-77
2023/08/02 05:25:22;;;;;;;;;;;;;;;23.43;50.32;99477.70;2306332;76;50675;-77
2023/08/02 05:28:24;;;;;;;;;;;;;;;23.43;50.33;99474.47;2321692;75;52161;-77
2023/08/02 05:31:25;;;;;;;;;;;;;;;23.43;50.33;99473.12;2322116;76;50694;-77
2023/08/02 05:34:27;;;;;;;;;;;;;;;23.44;50.29;99477.45;2322180;76;51481;-76
2023/08/02 05:37:29;;;;;;;;;;;;;;;23.44;50.29;99473.94;2274553;76;53473;-77
2023/08/02 05:40:31;;;;;;;;;;;;;;;23.45;50.24;99470.16;2299969;76;50284;-77
2023/08/02 05:43:33;;;;;;;;;;;;;;;23.46;50.25;99470.47;2300408;76;50265;-77
2023/08/02 05:46:34;;;;;;;;;;;;;;;23.44;50.26;99466.64;2321992;75;50369;-77
2023/08/02 05:49:36;;;;;;;;;;;;;;;23.46;50.27;99471.28;2322122;76;50734;-77
2023/08/02 05:52:37;;;;;;;;;;;;;;;23.48;50.26;99483.19;2300389;76;51435;-77
2023/08/02 05:55:39;;;;;;;;;;;;;;;23.48;50.27;99484.01;2321826;75;51475;-77
2023/08/02 05:58:40;;;;;;;;;;;;;;;23.49;50.29;99480.77;2319481;76;51474;-77
2023/08/02 06:01:42;;;;;;;;;;;;;;;23.48;50.26;99478.61;2295396;76;51550;-77
2023/08/02 06:04:44;;;;;;;;;;;;;;;23.51;50.25;99489.98;2319475;76;51496;-77
2023/08/02 06:07:46;;;;;;;;;;;;;;;23.50;50.27;99486.44;2319179;75;51499;-77
2023/08/02 06:10:47;;;;;;;;;;;;;;;23.50;50.28;99483.75;2319481;76;51455;-77
2023/08/02 06:13:49;;;;;;;;;;;;;;;23.50;50.30;99482.39;2307954;76;50943;-77
2023/08/02 06:16:51;;;;;;;;;;;;;;;23.53;50.29;99472.48;2295004;76;51419;-77
2023/08/02 06:19:52;;;;;;;;;;;;;;;23.55;50.28;99478.97;2295152;76;51812;-77
2023/08/02 06:22:54;;;;;;;;;;;;;;;23.56;50.25;99486.02;2319397;76;51482;-77
2023/08/02 06:25:55;;;;;;;;;;;;;;;23.61;50.21;99476.63;2316362;75;51443;-77
2023/08/02 06:28:57;;;;;;;;;;;;;;;23.75;49.95;99467.72;2295142;76;51570;-77
2023/08/02 06:31:59;;;;;;;;;;;;;;;23.94;49.81;99477.19;2295404;76;51669;-77
2023/08/02 06:35:00;;;;;;;;;;;;;;;23.89;50.01;99469.00;2295108;76;51450;-77
2023/08/02 06:38:02;;;;;;;;;;;;;;;23.91;50.03;99474.45;2269142;76;52325;-77
2023/08/02 06:41:03;;;;;;;;;;;;;;;23.97;49.87;99470.47;2295125;76;50406;-77
2023/08/02 06:44:05;;;;;;;;;;;;;;;23.99;50.01;99479.97;2319235;76;51445;-76
2023/08/02 06:47:07;;;;;;;;;;;;;;;24.01;49.96;99472.44;2319098;75;51448;-77
2023/08/02 06:50:08;;;;;;;;;;;;;;;24.06;49.90;99472.52;2307851;76;52511;-77
2023/08/02 06:53:10;;;;;;;;;;;;;;;24.05;49.99;99474.94;2319383;76;51439;-77
2023/08/02 06:56:13;;;;;;;;;;;;;;;23.98;50.05;99472.94;2321209;75;50588;-77
2023/08/02 06:59:15;;;;;;;;;;;;;;;24.01;49.85;99460.28;2297618;76;50795;-77
2023/08/02 07:02:16;;;;;;;;;;;;;;;24.08;49.86;99451.47;2296280;77;51681;-77
2023/08/02 07:05:18;;;;;;;;;;;;;;;24.16;49.74;99451.58;2269369;78;51580;-77
2023/08/02 07:08:20;;;;;;;;;;;;;;;24.23;49.63;99450.06;2282466;76;50625;-76
2023/08/02 07:11:21;;;;;;;;;;;;;;;24.22;49.64;99453.81;2282725;77;51512;-77
2023/08/02 07:14:23;;;;;;;;;;;;;;;24.24;49.44;99436.81;2296441;77;52353;-76
2023/08/02 07:17:24;;;;;;;;;;;;;;;24.30;49.42;99431.75;2269217;78;50744;-76
2023/08/02 07:20:26;;;;;;;;;;;;;;;24.32;49.38;99432.32;2269296;78;50404;-76
2023/08/02 07:23:27;;;;;;;;;;;;;;;24.37;49.30;99424.81;2244670;78;51105;-77
2023/08/02 07:26:29;;;;;;;;;;;;;;;24.36;49.27;99429.95;2312986;76;50141;-76
2023/08/02 07:29:30;;;;;;;;;;;;;;;24.41;49.10;99421.36;2322115;76;50635;-76
2023/08/02 07:32:32;;;;;;;;;;;;;;;24.44;48.99;99423.56;2322177;76;51403;-77
2023/08/02 07:35:37;;;;;;;;;;;;;;;24.48;48.88;99415.78;2300147;75;51552;-76
2023/08/02 07:38:39;;;;;;;;;;;;;;;24.47;48.84;99410.91;2299652;76;51147;-77
2023/08/02 07:41:41;;;;;;;;;;;;;;;24.48;48.83;99412.56;2299686;76;50398;-77
2023/08/02 07:44:42;;;;;;;;;;;;;;;24.49;48.78;99416.89;2300246;76;50550;-77
2023/08/02 07:47:44;;;;;;;;;;;;;;;24.51;48.73;99413.41;2321710;75;51424;-77
2023/08/02 07:50:45;;;;;;;;;;;;;;;24.51;48.65;99412.59;2274306;76;52482;-77
2023/08/02 07:53:48;;;;;;;;;;;;;;;24.53;48.63;99403.67;2321853;76;50351;-77
2023/08/02 07:56:50;;;;;;;;;;;;;;;24.53;48.57;99409.08;2320687;75;50669;-76
2023/08/02 07:59:52;;;;;;;;;;;;;;;24.54;48.60;99400.73;2319442;76;51631;-76
2023/08/02 08:02:53;;;;;;;;;;;;;;;24.55;48.46;99405.05;2308021;76;52888;-76
2023/08/02 08:05:55;;;;;;;;;;;;;;;24.53;48.56;99400.45;2295130;75;50266;-76
2023/08/02 08:08:57;;;;;;;;;;;;;;;24.46;48.54;99408.48;2319262;76;51552;-76
2023/08/02 08:11:58;;;;;;;;;;;;;;;24.37;48.54;99416.70;2319389;76;51505;-76
2023/08/02 08:15:00;;;;;;;;;;;;;;;24.33;48.67;99425.86;2307828;76;49581;-76
2023/08/02 08:18:01;;;;;;;;;;;;;;;24.37;48.58;99414.81;2319141;75;50503;-77
2023/08/02 08:21:03;;;;;;;;;;;;;;;24.40;48.74;99406.19;2295105;76;49420;-76
2023/08/02 08:24:06;;;;;;;;;;;;;;;24.43;48.69;99410.28;2295475;76;50680;-76
2023/08/02 08:27:08;;;;;;;;;;;;;;;24.47;48.57;99404.16;2249962;78;51248;-76
2023/08/02 08:30:10;;;;;;;;;;;;;;;24.48;48.51;99413.08;2268866;78;50280;-76
2023/08/02 08:33:11;;;;;;;;;;;;;;;24.46;48.53;99414.70;2280387;77;50423;-76
2023/08/02 08:36:14;;;;;;;;;;;;;;;24.44;48.52;99408.69;2268511;76;50641;-76
2023/08/02 08:39:15;;;;;;;;;;;;;;;24.44;48.54;99399.77;2268634;78;51902;-75
2023/08/02 08:42:17;;;;;;;;;;;;;;;24.40;48.52;99398.63;2280510;77;50304;-76
2023/08/02 08:45:20;;;;;;;;;;;;;;;24.40;48.59;99395.38;2280426;78;51663;-77
2023/08/02 08:48:21;;;;;;;;;;;;;;;24.38;48.56;99385.38;2280099;76;51483;-76
2023/08/02 08:51:23;;;;;;;;;;;;;;;24.38;48.51;99381.32;2268548;78;50626;-76
2023/08/02 08:54:25;;;;;;;;;;;;;;;24.37;48.55;99370.20;2292349;76;50278;-76
2023/08/02 08:57:27;;;;;;;;;;;;;;;24.34;48.61;99359.90;2320272;75;50704;-76
2023/08/02 09:00:31;;;;;;;;;;;;;;;24.33;48.58;99361.80;2319324;76;50601;-76
2023/08/02 09:03:33;;;;;;;;;;;;;;;24.36;48.62;99361.83;2319500;76;22455;-77
2023/08/02 09:06:36;;;;;;;;;;;;;;;24.36;48.59;99354.25;2317191;75;51493;-76
2023/08/02 09:09:37;;;;;;;;;;;;;;;24.33;48.63;99360.44;2319426;76;50733;-76
2023/08/02 09:12:45;;;;;;;;;;;;;;;24.34;48.61;99348.55;2319458;76;51453;-76
2023/08/02 09:15:48;;;;;;;;;;;;;;;24.34;48.58;99351.25;2307948;75;51175;-76
2023/08/02 09:18:50;;;;;;;;;;;;;;;24.32;48.62;99357.44;2318913;76;51524;-75
2023/08/02 09:22:10;;;;;;;;;;;;;;;24.32;48.67;99344.46;2295222;76;50067;-76
2023/08/02 09:25:22;;;;;;;;;;;;;;;24.30;48.74;99341.19;2313366;76;50264;-75
2023/08/02 09:28:24;;;;;;;;;;;;;;;24.27;48.72;99335.75;2304353;76;51252;-75
2023/08/02 09:31:26;;;;;;;;;;;;;;;24.26;48.79;99340.89;2298993;76;50280;-76
2023/08/02 09:34:29;;;;;;;;;;;;;;;24.24;48.81;99340.86;2333060;76;51460;-76
2023/08/02 09:37:34;;;;;;;;;;;;;;;24.24;48.82;99338.16;2332160;75;51312;-76
2023/08/02 09:40:37;;;;;;;;;;;;;;;24.25;48.72;99329.80;2298676;76;49647;-75
2023/08/02 09:43:40;;;;;;;;;;;;;;;24.23;48.76;99338.70;2333006;76;50305;-75
2023/08/02 09:46:42;;;;;;;;;;;;;;;24.22;48.84;99332.18;2332638;74;50705;-75
2023/08/02 09:49:43;;;;;;;;;;;;;;;24.21;48.89;99330.56;2333099;76;50740;-76
2023/08/02 09:52:45;;;;;;;;;;;;;;;24.19;48.87;99321.88;2298707;76;52545;-76
2023/08/02 09:55:47;;;;;;;;;;;;;;;24.18;48.90;99318.36;2302732;75;51451;-76
2023/08/02 09:58:48;;;;;;;;;;;;;;;24.18;48.90;99306.74;2321255;76;50636;-76
2023/08/02 10:01:50;;;;;;;;;;;;;;;24.20;48.88;99307.28;2319525;76;51459;-75
2023/08/02 10:04:55;;;;;;;;;;;;;;;24.18;48.92;99315.66;2319582;76;51479;-75
2023/08/02 10:07:59;;;;;;;;;;;;;;;24.19;48.84;99299.71;2295070;76;51615;-76
2023/08/02 10:11:00;;;;;;;;;;;;;;;24.16;48.94;99303.47;2317859;76;51466;-76
2023/08/02 10:14:03;;;;;;;;;;;;;;;24.15;48.97;99292.36;2319367;76;51424;-76
2023/08/02 10:17:04;;;;;;;;;;;;;;;24.17;48.90;99298.33;2307481;76;51284;-76
2023/08/02 10:20:06;;;;;;;;;;;;;;;24.13;48.96;99289.39;2295130;76;52369;-76
2023/08/02 10:23:10;;;;;;;;;;;;;;;24.13;48.98;99271.82;2319493;76;50076;-75
2023/08/02 10:26:11;;;;;;;;;;;;;;;24.12;49.07;99279.66;2305977;75;50347;-76
2023/08/02 10:29:13;;;;;;;;;;;;;;;24.12;49.00;99276.95;2299722;76;51172;-76
2023/08/02 10:32:17;;;;;;;;;;;;;;;24.11;49.08;99278.01;2333121;76;50115;-76
2023/08/02 10:35:20;;;;;;;;;;;;;;;24.12;49.05;99270.71;2332913;74;51543;-75
2023/08/02 10:38:26;;;;;;;;;;;;;;;24.12;49.05;99276.12;2331766;75;51454;-75
2023/08/02 10:41:28;;;;;;;;;;;;;;;24.11;49.08;99272.60;2298932;76;51372;-75
2023/08/02 10:44:31;;;;;;;;;;;;;;;24.12;49.05;99275.61;2333056;75;52242;-76
2023/08/02 10:47:34;;;;;;;;;;;;;;;24.11;49.10;99271.25;2299376;76;50461;-76
2023/08/02 10:50:42;;;;;;;;;;;;;;;24.10;49.14;99263.42;2332984;76;51978;-76
2023/08/02 10:53:46;;;;;;;;;;;;;;;24.10;49.16;99259.36;2298774;76;52456;-76
2023/08/02 10:56:56;;;;;;;;;;;;;;;24.11;49.12;99252.88;2320318;75;52137;-76
2023/08/02 10:59:57;;;;;;;;;;;;;;;24.13;49.11;99251.55;2322467;75;50311;-77
2023/08/02 11:02:59;;;;;;;;;;;;;;;24.12;49.12;99242.34;2322205;75;51479;-76
2023/08/02 11:06:00;;;;;;;;;;;;;;;24.11;49.14;99239.36;2300076;75;50974;-76
2023/08/02 11:09:02;;;;;;;;;;;;;;;24.09;49.17;99231.50;2321993;76;51486;-77
2023/08/02 11:12:10;;;;;;;;;;;;;;;24.11;49.14;99232.06;2322017;75;51500;-75
2023/08/02 11:15:16;;;;;;;;;;;;;;;24.10;49.17;99229.64;2322179;75;51340;-76
2023/08/02 11:18:17;;;;;;;;;;;;;;;24.10;49.15;99222.34;2299628;76;51751;-76
2023/08/02 11:21:19;;;;;;;;;;;;;;;24.09;49.19;99226.09;2322131;75;51448;-77
2023/08/02 11:24:20;;;;;;;;;;;;;;;24.12;49.11;99214.80;2321890;75;51397;-76
2023/08/02 11:27:24;;;;;;;;;;;;;;;24.12;49.14;99214.80;2314011;74;50583;-76
2023/08/02 11:30:25;;;;;;;;;;;;;;;24.09;49.19;99203.66;2299881;76;50782;-77
2023/08/02 11:33:27;;;;;;;;;;;;;;;24.11;49.17;99192.87;2300397;76;50624;-76
2023/08/02 11:36:30;;;;;;;;;;;;;;;24.11;49.13;99187.48;2300085;76;51477;-76
2023/08/02 11:39:32;;;;;;;;;;;;;;;24.12;49.16;99185.08;2300228;76;51622;-76
2023/08/02 11:42:35;;;;;;;;;;;;;;;24.12;49.14;99178.31;2278327;76;51122;-76
2023/08/02 11:45:41;;;;;;;;;;;;;;;24.10;49.18;99172.34;2300192;76;53461;-77
2023/08/02 11:48:44;;;;;;;;;;;;;;;24.10;49.16;99164.23;2299882;76;22160;-76
2023/08/02 11:51:43;;;;;;;;;;;;;;;24.11;49.16;99175.31;2299899;76;22613;-76
2023/08/02 11:54:45;;;;;;;;;;;;;;;24.10;49.16;99157.48;2280770;76;52647;-76
2023/08/02 11:57:47;;;;;;;;;;;;;;;24.07;49.21;99158.00;2304863;76;52193;-76
2023/08/02 12:00:49;;;;;;;;;;;;;;;24.08;49.18;99163.67;2319381;76;50798;-77
2023/08/02 12:03:57;;;;;;;;;;;;;;;24.07;49.22;99166.11;2319445;76;50240;-76
2023/08/02 12:06:58;;;;;;;;;;;;;;;24.06;49.29;99163.11;2307679;76;52578;-76
2023/08/02 12:10:08;;;;;;;;;;;;;;;24.05;49.27;99165.55;2319392;76;50746;-76
2023/08/02 12:13:14;;;;;;;;;;;;;;;24.06;49.30;99166.34;2318248;76;23257;-76
2023/08/02 12:16:16;;;;;;;;;;;;;;;24.05;49.27;99166.89;2319257;75;50805;-76
2023/08/02 12:19:18;;;;;;;;;;;;;;;24.05;49.29;99151.22;2270136;76;50161;-77
2023/08/02 12:22:20;;;;;;;;;;;;;;;24.07;49.25;99138.24;2295646;76;50194;-76
2023/08/02 12:25:21;;;;;;;;;;;;;;;24.07;49.24;99129.63;2323137;75;50227;-76
2023/08/02 12:28:23;;;;;;;;;;;;;;;24.08;49.23;99147.46;2321437;75;50275;-76
2023/08/02 12:31:24;;;;;;;;;;;;;;;24.08;49.23;99143.41;2274885;76;51522;-76
2023/08/02 12:34:27;;;;;;;;;;;;;;;24.08;49.23;99136.66;2299958;76;50724;-76
2023/08/02 12:37:29;;;;;;;;;;;;;;;24.06;49.30;99122.58;2321833;75;50764;-76
2023/08/02 12:40:30;;;;;;;;;;;;;;;24.05;49.31;99125.01;2322017;75;51414;-76
2023/08/02 12:43:32;;;;;;;;;;;;;;;24.04;49.27;99123.36;2300086;75;52366;-77
2023/08/02 12:46:34;;;;;;;;;;;;;;;24.03;49.28;99108.23;2322073;75;50634;-76
2023/08/02 12:49:35;;;;;;;;;;;;;;;24.02;49.30;99095.81;2300360;76;51516;-75
2023/08/02 12:52:37;;;;;;;;;;;;;;;24.03;49.27;99101.48;2322271;76;51498;-76
2023/08/02 12:55:38;;;;;;;;;;;;;;;24.04;49.29;99101.75;2271445;75;52342;-75
2023/08/02 12:58:40;;;;;;;;;;;;;;;24.03;49.29;99087.97;2321493;76;51300;-76
2023/08/02 13:01:42;;;;;;;;;;;;;;;24.02;49.29;99083.65;2321579;76;51475;-76
2023/08/02 13:04:44;;;;;;;;;;;;;;;24.02;49.31;99083.65;2321568;76;50291;-75
2023/08/02 13:07:46;;;;;;;;;;;;;;;24.01;49.36;99086.05;2309141;76;52444;-76
2023/08/02 13:10:47;;;;;;;;;;;;;;;24.01;49.37;99085.25;2321437;76;50245;-75
2023/08/02 13:13:49;;;;;;;;;;;;;;;24.02;49.36;99079.59;2321444;76;51504;-76
2023/08/02 13:16:50;;;;;;;;;;;;;;;24.02;49.36;99081.45;2321229;75;51438;-76
2023/08/02 13:19:52;;;;;;;;;;;;;;;24.02;49.33;99076.05;2283407;76;53388;-76
2023/08/02 13:22:54;;;;;;;;;;;;;;;24.03;49.35;99073.11;2309302;76;51689;-76
2023/08/02 13:25:56;;;;;;;;;;;;;;;24.00;49.33;99069.58;2302833;75;50798;-76
2023/08/02 13:28:58;;;;;;;;;;;;;;;24.01;49.36;99061.73;2287272;76;50082;-76
2023/08/02 13:32:00;;;;;;;;;;;;;;;24.03;49.30;99060.14;2270371;76;52601;-76
2023/08/02 13:35:02;;;;;;;;;;;;;;;24.02;49.32;99063.89;2319463;76;52294;-75
2023/08/02 13:38:04;;;;;;;;;;;;;;;24.01;49.30;99057.69;2319267;75;50297;-76
2023/08/02 13:41:05;;;;;;;;;;;;;;;24.00;49.33;99060.12;2295338;76;50614;-76
2023/08/02 13:44:07;;;;;;;;;;;;;;;24.03;49.25;99045.28;2269803;76;51156;-75
2023/08/02 13:47:09;;;;;;;;;;;;;;;24.04;49.25;99045.55;2319351;75;51535;-75
2023/08/02 13:50:10;;;;;;;;;;;;;;;24.04;49.25;99040.14;2295312;76;52340;-75
2023/08/02 13:53:13;;;;;;;;;;;;;;;24.01;49.28;99038.77;2295305;76;51429;-76
2023/08/02 13:56:15;;;;;;;;;;;;;;;24.02;49.24;99036.37;2281368;75;51213;-76
2023/08/02 13:59:16;;;;;;;;;;;;;;;24.03;49.25;99021.77;2306569;76;50643;-76
2023/08/02 14:02:18;;;;;;;;;;;;;;;24.03;49.24;99009.61;2309336;76;52105;-76
2023/08/02 14:05:19;;;;;;;;;;;;;;;24.04;49.24;99002.31;2321553;76;50163;-76
2023/08/02 14:08:21;;;;;;;;;;;;;;;24.04;49.24;98996.37;2321195;75;50425;-76
2023/08/02 14:11:23;;;;;;;;;;;;;;;24.04;49.22;98979.34;2321377;76;50432;-76
2023/08/02 14:14:24;;;;;;;;;;;;;;;24.07;49.19;98961.26;2321442;76;51631;-75
2023/08/02 14:17:26;;;;;;;;;;;;;;;24.08;49.17;98956.15;2321206;75;51610;-75
2023/08/02 14:20:28;;;;;;;;;;;;;;;24.07;49.16;98953.99;2309052;76;52622;-76
2023/08/02 14:23:29;;;;;;;;;;;;;;;24.06;49.21;98959.64;2309249;76;51460;-76
2023/08/02 14:26:31;;;;;;;;;;;;;;;24.05;49.23;98937.77;2296938;76;51433;-75
2023/08/02 14:29:32;;;;;;;;;;;;;;;24.04;49.22;98946.38;2321396;75;50192;-76
2023/08/02 14:32:34;;;;;;;;;;;;;;;24.05;49.24;98941.81;2309407;76;51152;-76
2023/08/02 14:35:35;;;;;;;;;;;;;;;24.03;49.27;98938.02;2321423;75;50261;-75
2023/08/02 14:38:39;;;;;;;;;;;;;;;24.03;49.30;98940.72;2308618;76;50441;-75
2023/08/02 14:41:43;;;;;;;;;;;;;;;24.03;49.34;98924.50;2321332;76;51615;-75
2023/08/02 14:44:45;;;;;;;;;;;;;;;24.03;49.29;98923.16;2284164;76;52454;-75
2023/08/02 14:47:46;;;;;;;;;;;;;;;24.02;49.33;98921.54;2309106;76;50282;-76
2023/08/02 14:50:48;;;;;;;;;;;;;;;23.99;49.36;98912.58;2309212;76;50087;-75
2023/08/02 14:53:50;;;;;;;;;;;;;;;23.99;49.38;98923.38;2320216;76;50260;-76
2023/08/02 14:56:51;;;;;;;;;;;;;;;24.02;49.32;98932.86;2301872;76;49590;-76
2023/08/02 14:59:53;;;;;;;;;;;;;;;24.02;49.31;98935.05;2295372;76;50428;-76
2023/08/02 15:02:54;;;;;;;;;;;;;;;23.99;49.32;98939.59;2319544;76;51457;-76
2023/08/02 15:05:56;;;;;;;;;;;;;;;24.00;49.35;98940.44;2319505;75;52585;-76
2023/08/02 15:08:57;;;;;;;;;;;;;;;23.97;49.40;98917.97;2307669;76;50983;-76
2023/08/02 15:11:59;;;;;;;;;;;;;;;23.97;49.43;98911.22;2295116;76;51555;-76
2023/08/02 15:15:01;;;;;;;;;;;;;;;23.95;49.47;98912.84;2319539;76;50363;-76
2023/08/02 15:18:02;;;;;;;;;;;;;;;23.95;49.48;98910.69;2294876;76;50650;-76
2023/08/02 15:21:04;;;;;;;;;;;;;;;23.94;49.47;98897.69;2269753;76;50336;-76
2023/08/02 15:24:05;;;;;;;;;;;;;;;23.93;49.47;98892.02;2319721;76;50376;-76
2023/08/02 15:27:07;;;;;;;;;;;;;;;23.94;49.47;98874.73;2301860;75;50390;-76
2023/08/02 15:30:09;;;;;;;;;;;;;;;23.94;49.45;98861.22;2258273;78;50167;-75
2023/08/02 15:33:10;;;;;;;;;;;;;;;23.94;49.46;98847.71;2234012;78;52411;-76
2023/08/02 15:36:12;;;;;;;;;;;;;;;23.94;49.45;98854.47;2258140;77;50249;-76
2023/08/02 15:39:13;;;;;;;;;;;;;;;23.94;49.45;98846.36;2277673;78;50252;-75
2023/08/02 15:42:15;;;;;;;;;;;;;;;23.93;49.46;98846.64;2277673;77;50265;-76
2023/08/02 15:45:17;;;;;;;;;;;;;;;23.93;49.47;98825.84;2257730;78;49835;-76
2023/08/02 15:48:18;;;;;;;;;;;;;;;23.93;49.45;98831.78;2277377;77;51594;-75